Archival Weather

Chicago O'Hare International

Chicago, Illinois (KORD)

Report from: Tuesday, September 19, 2023 6:51 AM CDT
Current time: Saturday, September 30, 2023 9:09 PM CDT

Current weather
Weather history
Weather forecast

Temperature15.6°C (60.1°F)
Dew point11.7°C (53.1°F)
Winds 5 kts (2.6 m/s, 5.8 mph) South-Southeast (160°)
Visibility10 mi. (16.1 km)
Clouds Ceiling: Broken clouds 9,500 ft. (2,896 m)
Overcast 25,000 ft. (7,620 m)
Altimeter30.02 in.Hg (1017 mB)
Precip last 3 hoursTrace
Relative humidity78 %
Density altitude154 ft. (47 m)
Sea-level pressure101.7 kPa (1017 mB, 30.02 in.Hg)
Max temp last 6 hours15.6°C (60.1°F)
Min temp last 6 hours14.4°C (57.9°F)
Remarks Automated weather observing station with precipitation discriminator
Pressure falling, then rising
Flight conditions Visual Meteorological Conditions
Raw dataKORD 191151Z 16005KT 10SM BKN095 OVC250 16/12 A3002 RMK AO2 SLP165 60000 T01560117 10156 20144 55001
An error has occurred. This application may no longer respond until reloaded. Reload 🗙